sensor_id;sensor_type;location;lat;lon;timestamp;P1;durP1;ratioP1;P2;durP2;ratioP2
16731;SDS011;8484;50.904;9.192;2023-02-22T00:01:31;147.33;;;17.90;;
16731;SDS011;8484;50.904;9.192;2023-02-22T00:04:02;49.53;;;12.93;;
16731;SDS011;8484;50.904;9.192;2023-02-22T00:06:31;124.77;;;17.00;;
16731;SDS011;8484;50.904;9.192;2023-02-22T00:08:58;207.77;;;20.87;;
16731;SDS011;8484;50.904;9.192;2023-02-22T00:11:27;132.87;;;17.07;;
16731;SDS011;8484;50.904;9.192;2023-02-22T00:13:55;290.37;;;27.47;;
16731;SDS011;8484;50.904;9.192;2023-02-22T00:16:23;76.27;;;14.00;;
16731;SDS011;8484;50.904;9.192;2023-02-22T00:18:51;42.70;;;12.57;;
16731;SDS011;8484;50.904;9.192;2023-02-22T00:21:18;191.30;;;20.20;;
16731;SDS011;8484;50.904;9.192;2023-02-22T00:23:47;87.73;;;14.67;;
16731;SDS011;8484;50.904;9.192;2023-02-22T00:26:16;162.40;;;16.17;;
16731;SDS011;8484;50.904;9.192;2023-02-22T00:28:47;118.00;;;16.50;;
16731;SDS011;8484;50.904;9.192;2023-02-22T00:31:14;68.63;;;11.90;;
16731;SDS011;8484;50.904;9.192;2023-02-22T00:33:42;139.43;;;14.43;;
16731;SDS011;8484;50.904;9.192;2023-02-22T00:36:09;49.13;;;11.73;;
16731;SDS011;8484;50.904;9.192;2023-02-22T00:38:37;56.30;;;12.07;;
16731;SDS011;8484;50.904;9.192;2023-02-22T00:41:05;61.03;;;12.90;;
16731;SDS011;8484;50.904;9.192;2023-02-22T00:43:32;26.67;;;10.37;;
16731;SDS011;8484;50.904;9.192;2023-02-22T00:46:00;97.67;;;13.67;;
16731;SDS011;8484;50.904;9.192;2023-02-22T00:48:27;79.50;;;14.00;;
16731;SDS011;8484;50.904;9.192;2023-02-22T00:50:54;119.67;;;15.53;;
16731;SDS011;8484;50.904;9.192;2023-02-22T00:53:22;133.77;;;15.50;;
16731;SDS011;8484;50.904;9.192;2023-02-22T00:55:50;118.97;;;14.70;;
16731;SDS011;8484;50.904;9.192;2023-02-22T00:58:17;73.17;;;14.37;;
16731;SDS011;8484;50.904;9.192;2023-02-22T01:00:44;56.70;;;12.17;;
16731;SDS011;8484;50.904;9.192;2023-02-22T01:03:14;77.37;;;14.57;;
16731;SDS011;8484;50.904;9.192;2023-02-22T01:05:45;135.13;;;15.73;;
16731;SDS011;8484;50.904;9.192;2023-02-22T01:08:13;54.87;;;12.40;;
16731;SDS011;8484;50.904;9.192;2023-02-22T01:10:41;85.73;;;14.47;;
16731;SDS011;8484;50.904;9.192;2023-02-22T01:13:08;115.30;;;16.10;;
16731;SDS011;8484;50.904;9.192;2023-02-22T01:15:37;79.60;;;13.30;;
16731;SDS011;8484;50.904;9.192;2023-02-22T01:18:05;70.33;;;13.87;;
16731;SDS011;8484;50.904;9.192;2023-02-22T01:20:33;100.83;;;15.07;;
16731;SDS011;8484;50.904;9.192;2023-02-22T01:23:01;81.57;;;14.50;;
16731;SDS011;8484;50.904;9.192;2023-02-22T01:25:30;88.97;;;14.80;;
16731;SDS011;8484;50.904;9.192;2023-02-22T01:27:58;71.00;;;13.47;;
16731;SDS011;8484;50.904;9.192;2023-02-22T01:30:27;74.57;;;13.63;;
16731;SDS011;8484;50.904;9.192;2023-02-22T01:32:56;79.10;;;14.77;;
16731;SDS011;8484;50.904;9.192;2023-02-22T01:35:24;79.37;;;15.13;;
16731;SDS011;8484;50.904;9.192;2023-02-22T01:37:54;53.70;;;13.63;;
16731;SDS011;8484;50.904;9.192;2023-02-22T01:40:22;36.50;;;11.33;;
16731;SDS011;8484;50.904;9.192;2023-02-22T01:42:51;63.37;;;13.63;;
16731;SDS011;8484;50.904;9.192;2023-02-22T01:48:10;33.43;;;12.33;;
16731;SDS011;8484;50.904;9.192;2023-02-22T01:50:40;102.83;;;15.33;;
16731;SDS011;8484;50.904;9.192;2023-02-22T01:53:15;112.53;;;15.33;;
16731;SDS011;8484;50.904;9.192;2023-02-22T01:55:47;123.77;;;16.23;;
16731;SDS011;8484;50.904;9.192;2023-02-22T01:58:15;162.20;;;18.30;;
16731;SDS011;8484;50.904;9.192;2023-02-22T02:00:45;61.63;;;13.83;;
16731;SDS011;8484;50.904;9.192;2023-02-22T02:03:13;65.00;;;13.90;;
16731;SDS011;8484;50.904;9.192;2023-02-22T02:05:42;41.33;;;11.60;;
16731;SDS011;8484;50.904;9.192;2023-02-22T02:08:13;100.83;;;16.27;;
16731;SDS011;8484;50.904;9.192;2023-02-22T02:10:48;62.53;;;12.83;;
16731;SDS011;8484;50.904;9.192;2023-02-22T02:13:15;95.47;;;15.97;;
16731;SDS011;8484;50.904;9.192;2023-02-22T02:15:42;119.23;;;16.77;;
16731;SDS011;8484;50.904;9.192;2023-02-22T02:18:10;79.77;;;14.43;;
16731;SDS011;8484;50.904;9.192;2023-02-22T02:20:41;120.97;;;16.77;;
16731;SDS011;8484;50.904;9.192;2023-02-22T02:23:20;73.77;;;13.93;;
16731;SDS011;8484;50.904;9.192;2023-02-22T02:26:26;43.03;;;11.47;;
16731;SDS011;8484;50.904;9.192;2023-02-22T02:32:35;67.27;;;13.37;;
16731;SDS011;8484;50.904;9.192;2023-02-22T02:35:11;119.20;;;17.30;;
16731;SDS011;8484;50.904;9.192;2023-02-22T02:37:46;38.17;;;12.00;;
16731;SDS011;8484;50.904;9.192;2023-02-22T02:40:20;64.83;;;13.83;;
16731;SDS011;8484;50.904;9.192;2023-02-22T02:42:52;45.67;;;12.47;;
16731;SDS011;8484;50.904;9.192;2023-02-22T02:45:26;64.47;;;13.40;;
16731;SDS011;8484;50.904;9.192;2023-02-22T02:47:59;31.37;;;11.73;;
16731;SDS011;8484;50.904;9.192;2023-02-22T02:50:32;38.63;;;11.77;;
16731;SDS011;8484;50.904;9.192;2023-02-22T02:53:07;49.43;;;12.47;;
16731;SDS011;8484;50.904;9.192;2023-02-22T02:55:35;83.70;;;15.13;;
16731;SDS011;8484;50.904;9.192;2023-02-22T02:58:02;52.90;;;12.87;;
16731;SDS011;8484;50.904;9.192;2023-02-22T03:00:31;86.20;;;14.97;;
16731;SDS011;8484;50.904;9.192;2023-02-22T03:03:12;131.93;;;16.47;;
16731;SDS011;8484;50.904;9.192;2023-02-22T03:09:10;98.50;;;16.13;;
16731;SDS011;8484;50.904;9.192;2023-02-22T03:11:44;44.90;;;12.57;;
16731;SDS011;8484;50.904;9.192;2023-02-22T03:14:26;193.57;;;19.60;;
16731;SDS011;8484;50.904;9.192;2023-02-22T03:17:00;110.23;;;16.40;;
16731;SDS011;8484;50.904;9.192;2023-02-22T03:19:39;86.87;;;16.23;;
16731;SDS011;8484;50.904;9.192;2023-02-22T03:22:15;66.60;;;14.70;;
16731;SDS011;8484;50.904;9.192;2023-02-22T03:24:48;70.70;;;16.17;;
16731;SDS011;8484;50.904;9.192;2023-02-22T03:27:21;67.33;;;15.60;;
16731;SDS011;8484;50.904;9.192;2023-02-22T03:29:52;92.87;;;16.63;;
16731;SDS011;8484;50.904;9.192;2023-02-22T03:32:26;89.27;;;16.73;;
16731;SDS011;8484;50.904;9.192;2023-02-22T03:34:58;147.90;;;20.43;;
16731;SDS011;8484;50.904;9.192;2023-02-22T03:37:31;120.80;;;17.83;;
16731;SDS011;8484;50.904;9.192;2023-02-22T03:40:03;141.27;;;18.07;;
16731;SDS011;8484;50.904;9.192;2023-02-22T03:42:37;77.37;;;14.40;;
16731;SDS011;8484;50.904;9.192;2023-02-22T03:45:08;101.40;;;16.20;;
16731;SDS011;8484;50.904;9.192;2023-02-22T03:47:40;95.23;;;15.70;;
16731;SDS011;8484;50.904;9.192;2023-02-22T03:50:13;86.20;;;14.97;;
16731;SDS011;8484;50.904;9.192;2023-02-22T03:52:42;68.90;;;13.57;;
16731;SDS011;8484;50.904;9.192;2023-02-22T03:55:11;68.23;;;14.10;;
16731;SDS011;8484;50.904;9.192;2023-02-22T03:57:42;59.37;;;14.73;;
16731;SDS011;8484;50.904;9.192;2023-02-22T04:00:14;123.30;;;16.50;;
16731;SDS011;8484;50.904;9.192;2023-02-22T04:02:43;105.47;;;16.80;;
16731;SDS011;8484;50.904;9.192;2023-02-22T04:05:10;105.40;;;16.20;;
16731;SDS011;8484;50.904;9.192;2023-02-22T04:07:39;86.30;;;14.63;;
16731;SDS011;8484;50.904;9.192;2023-02-22T04:10:08;65.90;;;13.37;;
16731;SDS011;8484;50.904;9.192;2023-02-22T04:12:35;122.77;;;17.10;;
16731;SDS011;8484;50.904;9.192;2023-02-22T04:15:03;84.40;;;14.70;;
16731;SDS011;8484;50.904;9.192;2023-02-22T04:17:32;75.70;;;13.17;;
16731;SDS011;8484;50.904;9.192;2023-02-22T04:19:59;75.93;;;14.70;;
16731;SDS011;8484;50.904;9.192;2023-02-22T04:22:27;108.10;;;16.70;;
16731;SDS011;8484;50.904;9.192;2023-02-22T04:24:56;44.80;;;13.93;;
16731;SDS011;8484;50.904;9.192;2023-02-22T04:27:23;45.47;;;13.07;;
16731;SDS011;8484;50.904;9.192;2023-02-22T04:29:50;81.27;;;14.23;;
16731;SDS011;8484;50.904;9.192;2023-02-22T04:32:17;67.10;;;13.03;;
16731;SDS011;8484;50.904;9.192;2023-02-22T04:34:44;91.17;;;14.70;;
16731;SDS011;8484;50.904;9.192;2023-02-22T04:37:10;111.47;;;16.87;;
16731;SDS011;8484;50.904;9.192;2023-02-22T04:39:38;105.33;;;15.43;;
16731;SDS011;8484;50.904;9.192;2023-02-22T04:42:06;84.70;;;14.47;;
16731;SDS011;8484;50.904;9.192;2023-02-22T04:44:33;74.97;;;15.17;;
16731;SDS011;8484;50.904;9.192;2023-02-22T04:47:00;54.40;;;13.50;;
16731;SDS011;8484;50.904;9.192;2023-02-22T04:49:27;99.90;;;15.60;;
16731;SDS011;8484;50.904;9.192;2023-02-22T04:51:53;65.63;;;14.07;;
16731;SDS011;8484;50.904;9.192;2023-02-22T04:54:20;52.03;;;13.17;;
16731;SDS011;8484;50.904;9.192;2023-02-22T04:56:47;82.23;;;14.50;;
16731;SDS011;8484;50.904;9.192;2023-02-22T04:59:15;131.77;;;17.97;;
16731;SDS011;8484;50.904;9.192;2023-02-22T05:01:43;47.10;;;13.30;;
16731;SDS011;8484;50.904;9.192;2023-02-22T05:04:10;49.90;;;12.70;;
16731;SDS011;8484;50.904;9.192;2023-02-22T05:06:37;52.93;;;13.53;;
16731;SDS011;8484;50.904;9.192;2023-02-22T05:09:04;33.40;;;12.17;;
16731;SDS011;8484;50.904;9.192;2023-02-22T05:11:31;64.00;;;13.47;;
16731;SDS011;8484;50.904;9.192;2023-02-22T05:13:58;77.50;;;15.70;;
16731;SDS011;8484;50.904;9.192;2023-02-22T05:16:26;50.13;;;13.10;;
16731;SDS011;8484;50.904;9.192;2023-02-22T05:18:53;74.73;;;15.40;;
16731;SDS011;8484;50.904;9.192;2023-02-22T05:21:20;44.97;;;13.00;;
16731;SDS011;8484;50.904;9.192;2023-02-22T05:23:47;34.93;;;12.57;;
16731;SDS011;8484;50.904;9.192;2023-02-22T05:26:14;47.40;;;13.43;;
16731;SDS011;8484;50.904;9.192;2023-02-22T05:28:41;43.93;;;12.13;;
16731;SDS011;8484;50.904;9.192;2023-02-22T05:31:08;71.17;;;14.90;;
16731;SDS011;8484;50.904;9.192;2023-02-22T05:33:36;67.30;;;13.70;;
16731;SDS011;8484;50.904;9.192;2023-02-22T05:36:03;34.90;;;12.13;;
16731;SDS011;8484;50.904;9.192;2023-02-22T05:38:31;39.43;;;11.80;;
16731;SDS011;8484;50.904;9.192;2023-02-22T05:40:58;91.03;;;15.53;;
16731;SDS011;8484;50.904;9.192;2023-02-22T05:43:25;60.57;;;13.27;;
16731;SDS011;8484;50.904;9.192;2023-02-22T05:45:52;40.33;;;13.27;;
16731;SDS011;8484;50.904;9.192;2023-02-22T05:48:19;79.63;;;14.87;;
16731;SDS011;8484;50.904;9.192;2023-02-22T05:50:47;93.40;;;14.80;;
16731;SDS011;8484;50.904;9.192;2023-02-22T05:53:15;101.30;;;15.77;;
16731;SDS011;8484;50.904;9.192;2023-02-22T05:55:42;25.60;;;10.80;;
16731;SDS011;8484;50.904;9.192;2023-02-22T05:58:15;66.43;;;13.67;;
16731;SDS011;8484;50.904;9.192;2023-02-22T06:00:42;61.10;;;13.03;;
16731;SDS011;8484;50.904;9.192;2023-02-22T06:03:09;79.73;;;15.37;;
16731;SDS011;8484;50.904;9.192;2023-02-22T06:05:36;35.07;;;12.63;;
16731;SDS011;8484;50.904;9.192;2023-02-22T06:08:05;75.27;;;14.10;;
16731;SDS011;8484;50.904;9.192;2023-02-22T06:10:32;49.90;;;12.37;;
16731;SDS011;8484;50.904;9.192;2023-02-22T06:13:00;74.87;;;14.30;;
16731;SDS011;8484;50.904;9.192;2023-02-22T06:15:28;47.40;;;12.97;;
16731;SDS011;8484;50.904;9.192;2023-02-22T06:17:56;49.20;;;12.50;;
16731;SDS011;8484;50.904;9.192;2023-02-22T06:20:24;48.83;;;12.43;;
16731;SDS011;8484;50.904;9.192;2023-02-22T06:22:53;43.67;;;12.50;;
16731;SDS011;8484;50.904;9.192;2023-02-22T06:25:24;81.37;;;15.03;;
16731;SDS011;8484;50.904;9.192;2023-02-22T06:27:52;57.10;;;12.33;;
16731;SDS011;8484;50.904;9.192;2023-02-22T06:30:20;84.57;;;14.87;;
16731;SDS011;8484;50.904;9.192;2023-02-22T06:32:48;92.03;;;15.27;;
16731;SDS011;8484;50.904;9.192;2023-02-22T06:35:16;57.17;;;12.70;;
16731;SDS011;8484;50.904;9.192;2023-02-22T06:37:43;36.77;;;11.57;;
16731;SDS011;8484;50.904;9.192;2023-02-22T06:40:10;52.27;;;12.57;;
16731;SDS011;8484;50.904;9.192;2023-02-22T06:42:40;53.40;;;12.53;;
16731;SDS011;8484;50.904;9.192;2023-02-22T06:45:07;63.83;;;14.33;;
16731;SDS011;8484;50.904;9.192;2023-02-22T06:47:36;33.00;;;11.80;;
16731;SDS011;8484;50.904;9.192;2023-02-22T06:50:04;83.27;;;13.90;;
16731;SDS011;8484;50.904;9.192;2023-02-22T06:52:31;49.33;;;12.47;;
16731;SDS011;8484;50.904;9.192;2023-02-22T06:54:58;63.73;;;13.20;;
16731;SDS011;8484;50.904;9.192;2023-02-22T06:57:25;106.27;;;14.93;;
16731;SDS011;8484;50.904;9.192;2023-02-22T06:59:53;98.67;;;15.57;;
16731;SDS011;8484;50.904;9.192;2023-02-22T07:02:20;46.00;;;11.77;;
16731;SDS011;8484;50.904;9.192;2023-02-22T07:04:47;80.03;;;14.20;;
16731;SDS011;8484;50.904;9.192;2023-02-22T07:07:14;58.47;;;13.23;;
16731;SDS011;8484;50.904;9.192;2023-02-22T07:09:40;52.97;;;11.57;;
16731;SDS011;8484;50.904;9.192;2023-02-22T07:12:10;42.43;;;11.80;;
16731;SDS011;8484;50.904;9.192;2023-02-22T07:14:37;43.67;;;12.33;;
16731;SDS011;8484;50.904;9.192;2023-02-22T07:17:05;51.97;;;12.77;;
16731;SDS011;8484;50.904;9.192;2023-02-22T07:19:32;114.57;;;15.13;;
16731;SDS011;8484;50.904;9.192;2023-02-22T07:21:59;53.13;;;12.67;;
16731;SDS011;8484;50.904;9.192;2023-02-22T07:24:26;96.60;;;15.37;;
16731;SDS011;8484;50.904;9.192;2023-02-22T07:26:53;78.70;;;13.50;;
16731;SDS011;8484;50.904;9.192;2023-02-22T07:29:19;54.97;;;12.33;;
16731;SDS011;8484;50.904;9.192;2023-02-22T07:31:47;47.17;;;11.77;;
16731;SDS011;8484;50.904;9.192;2023-02-22T07:34:15;119.73;;;16.40;;
16731;SDS011;8484;50.904;9.192;2023-02-22T07:36:42;59.90;;;12.00;;
16731;SDS011;8484;50.904;9.192;2023-02-22T07:39:09;78.43;;;12.33;;
16731;SDS011;8484;50.904;9.192;2023-02-22T07:41:36;130.43;;;16.63;;
16731;SDS011;8484;50.904;9.192;2023-02-22T07:44:03;112.40;;;12.77;;
16731;SDS011;8484;50.904;9.192;2023-02-22T07:46:30;138.10;;;12.43;;
16731;SDS011;8484;50.904;9.192;2023-02-22T07:48:57;42.93;;;10.83;;
16731;SDS011;8484;50.904;9.192;2023-02-22T07:51:26;255.10;;;24.43;;
16731;SDS011;8484;50.904;9.192;2023-02-22T07:53:52;112.53;;;13.07;;
16731;SDS011;8484;50.904;9.192;2023-02-22T07:56:20;130.47;;;15.13;;
16731;SDS011;8484;50.904;9.192;2023-02-22T07:58:47;166.23;;;17.10;;
16731;SDS011;8484;50.904;9.192;2023-02-22T08:01:14;85.57;;;12.43;;
16731;SDS011;8484;50.904;9.192;2023-02-22T08:03:41;140.10;;;15.37;;
16731;SDS011;8484;50.904;9.192;2023-02-22T08:06:11;131.43;;;15.17;;
16731;SDS011;8484;50.904;9.192;2023-02-22T08:08:39;221.00;;;23.07;;
16731;SDS011;8484;50.904;9.192;2023-02-22T08:11:07;77.50;;;12.17;;
16731;SDS011;8484;50.904;9.192;2023-02-22T08:13:33;196.00;;;19.60;;
16731;SDS011;8484;50.904;9.192;2023-02-22T08:16:01;130.97;;;14.20;;
16731;SDS011;8484;50.904;9.192;2023-02-22T08:18:28;123.03;;;14.93;;
16731;SDS011;8484;50.904;9.192;2023-02-22T08:20:55;164.70;;;14.20;;
16731;SDS011;8484;50.904;9.192;2023-02-22T08:23:23;100.00;;;11.97;;
16731;SDS011;8484;50.904;9.192;2023-02-22T08:25:53;72.83;;;11.23;;
16731;SDS011;8484;50.904;9.192;2023-02-22T08:28:21;160.90;;;13.53;;
16731;SDS011;8484;50.904;9.192;2023-02-22T08:30:49;47.67;;;10.40;;
16731;SDS011;8484;50.904;9.192;2023-02-22T08:33:17;105.20;;;12.37;;
16731;SDS011;8484;50.904;9.192;2023-02-22T08:35:44;65.47;;;11.20;;
16731;SDS011;8484;50.904;9.192;2023-02-22T08:38:14;148.57;;;13.63;;
16731;SDS011;8484;50.904;9.192;2023-02-22T08:40:43;140.83;;;11.23;;
16731;SDS011;8484;50.904;9.192;2023-02-22T08:43:11;94.03;;;10.30;;
16731;SDS011;8484;50.904;9.192;2023-02-22T08:45:38;49.10;;;8.70;;
16731;SDS011;8484;50.904;9.192;2023-02-22T08:48:06;90.27;;;10.50;;
16731;SDS011;8484;50.904;9.192;2023-02-22T08:50:32;78.63;;;9.83;;
16731;SDS011;8484;50.904;9.192;2023-02-22T08:53:00;33.60;;;8.03;;
16731;SDS011;8484;50.904;9.192;2023-02-22T08:55:30;106.87;;;10.87;;
16731;SDS011;8484;50.904;9.192;2023-02-22T08:57:58;20.10;;;6.07;;
16731;SDS011;8484;50.904;9.192;2023-02-22T09:00:28;62.63;;;7.47;;
16731;SDS011;8484;50.904;9.192;2023-02-22T09:02:57;49.70;;;6.13;;
16731;SDS011;8484;50.904;9.192;2023-02-22T09:05:24;109.27;;;9.80;;
16731;SDS011;8484;50.904;9.192;2023-02-22T09:07:51;23.93;;;5.40;;
16731;SDS011;8484;50.904;9.192;2023-02-22T09:10:19;73.57;;;7.43;;
16731;SDS011;8484;50.904;9.192;2023-02-22T09:12:48;41.80;;;6.10;;
16731;SDS011;8484;50.904;9.192;2023-02-22T09:15:16;51.77;;;5.73;;
16731;SDS011;8484;50.904;9.192;2023-02-22T09:17:45;23.93;;;5.10;;
16731;SDS011;8484;50.904;9.192;2023-02-22T09:20:12;72.27;;;6.97;;
16731;SDS011;8484;50.904;9.192;2023-02-22T09:22:39;18.80;;;4.57;;
16731;SDS011;8484;50.904;9.192;2023-02-22T09:25:06;39.23;;;5.83;;
16731;SDS011;8484;50.904;9.192;2023-02-22T09:27:34;32.33;;;4.70;;
16731;SDS011;8484;50.904;9.192;2023-02-22T09:30:01;17.03;;;4.97;;
16731;SDS011;8484;50.904;9.192;2023-02-22T09:32:28;43.87;;;6.50;;
16731;SDS011;8484;50.904;9.192;2023-02-22T09:34:56;31.13;;;4.87;;
16731;SDS011;8484;50.904;9.192;2023-02-22T09:37:23;22.10;;;5.33;;
16731;SDS011;8484;50.904;9.192;2023-02-22T09:39:50;52.57;;;5.77;;
16731;SDS011;8484;50.904;9.192;2023-02-22T09:42:20;36.20;;;4.93;;
16731;SDS011;8484;50.904;9.192;2023-02-22T09:44:54;36.63;;;5.00;;
16731;SDS011;8484;50.904;9.192;2023-02-22T09:47:32;23.57;;;4.40;;
16731;SDS011;8484;50.904;9.192;2023-02-22T09:50:06;17.13;;;3.87;;
16731;SDS011;8484;50.904;9.192;2023-02-22T09:52:42;3.90;;;3.20;;
16731;SDS011;8484;50.904;9.192;2023-02-22T09:55:20;13.00;;;3.67;;
16731;SDS011;8484;50.904;9.192;2023-02-22T09:57:55;8.13;;;5.00;;
16731;SDS011;8484;50.904;9.192;2023-02-22T10:00:26;5.00;;;4.60;;
16731;SDS011;8484;50.904;9.192;2023-02-22T10:02:59;7.10;;;4.40;;
16731;SDS011;8484;50.904;9.192;2023-02-22T10:05:43;8.97;;;4.30;;
16731;SDS011;8484;50.904;9.192;2023-02-22T10:08:20;5.53;;;3.80;;
16731;SDS011;8484;50.904;9.192;2023-02-22T10:10:51;4.33;;;3.93;;
16731;SDS011;8484;50.904;9.192;2023-02-22T10:13:24;5.40;;;4.10;;
16731;SDS011;8484;50.904;9.192;2023-02-22T10:15:59;3.77;;;3.47;;
16731;SDS011;8484;50.904;9.192;2023-02-22T10:21:47;9.17;;;3.77;;
16731;SDS011;8484;50.904;9.192;2023-02-22T10:24:34;3.87;;;3.30;;
16731;SDS011;8484;50.904;9.192;2023-02-22T10:27:12;6.47;;;3.30;;
16731;SDS011;8484;50.904;9.192;2023-02-22T10:29:43;3.80;;;3.50;;
16731;SDS011;8484;50.904;9.192;2023-02-22T10:32:14;3.47;;;3.27;;
16731;SDS011;8484;50.904;9.192;2023-02-22T10:34:45;3.27;;;3.07;;
16731;SDS011;8484;50.904;9.192;2023-02-22T10:37:20;3.30;;;3.10;;
16731;SDS011;8484;50.904;9.192;2023-02-22T10:39:52;3.30;;;3.10;;
16731;SDS011;8484;50.904;9.192;2023-02-22T10:42:24;3.60;;;3.30;;
16731;SDS011;8484;50.904;9.192;2023-02-22T10:44:52;3.33;;;3.13;;
16731;SDS011;8484;50.904;9.192;2023-02-22T10:47:23;3.30;;;3.10;;
16731;SDS011;8484;50.904;9.192;2023-02-22T10:49:50;3.60;;;3.40;;
16731;SDS011;8484;50.904;9.192;2023-02-22T10:52:24;3.90;;;3.60;;
16731;SDS011;8484;50.904;9.192;2023-02-22T10:54:53;4.00;;;3.70;;
16731;SDS011;8484;50.904;9.192;2023-02-22T10:57:23;4.40;;;4.10;;
16731;SDS011;8484;50.904;9.192;2023-02-22T10:59:52;4.00;;;3.70;;
16731;SDS011;8484;50.904;9.192;2023-02-22T11:02:22;4.27;;;3.97;;
16731;SDS011;8484;50.904;9.192;2023-02-22T11:04:51;4.30;;;4.00;;
16731;SDS011;8484;50.904;9.192;2023-02-22T11:07:21;4.60;;;4.20;;
16731;SDS011;8484;50.904;9.192;2023-02-22T11:09:52;4.90;;;4.50;;
16731;SDS011;8484;50.904;9.192;2023-02-22T11:12:24;4.60;;;4.23;;
16731;SDS011;8484;50.904;9.192;2023-02-22T11:14:53;4.03;;;3.73;;
16731;SDS011;8484;50.904;9.192;2023-02-22T11:17:23;4.60;;;4.20;;
16731;SDS011;8484;50.904;9.192;2023-02-22T11:19:55;4.57;;;4.20;;
16731;SDS011;8484;50.904;9.192;2023-02-22T11:22:28;4.10;;;3.63;;
16731;SDS011;8484;50.904;9.192;2023-02-22T11:25:04;3.90;;;3.60;;
16731;SDS011;8484;50.904;9.192;2023-02-22T11:27:34;3.97;;;3.67;;
16731;SDS011;8484;50.904;9.192;2023-02-22T11:30:09;4.30;;;3.50;;
16731;SDS011;8484;50.904;9.192;2023-02-22T11:32:46;3.20;;;3.00;;
16731;SDS011;8484;50.904;9.192;2023-02-22T11:35:16;3.43;;;3.23;;
16731;SDS011;8484;50.904;9.192;2023-02-22T11:37:49;3.20;;;3.00;;
16731;SDS011;8484;50.904;9.192;2023-02-22T11:40:17;2.93;;;2.73;;
16731;SDS011;8484;50.904;9.192;2023-02-22T11:42:46;3.33;;;2.87;;
16731;SDS011;8484;50.904;9.192;2023-02-22T11:45:15;3.40;;;3.10;;
16731;SDS011;8484;50.904;9.192;2023-02-22T11:47:46;3.80;;;3.50;;
16731;SDS011;8484;50.904;9.192;2023-02-22T11:50:20;3.27;;;3.07;;
16731;SDS011;8484;50.904;9.192;2023-02-22T11:52:56;4.03;;;3.20;;
16731;SDS011;8484;50.904;9.192;2023-02-22T11:55:33;3.30;;;3.10;;
16731;SDS011;8484;50.904;9.192;2023-02-22T11:58:06;3.33;;;3.10;;
16731;SDS011;8484;50.904;9.192;2023-02-22T12:00:52;3.73;;;3.43;;
16731;SDS011;8484;50.904;9.192;2023-02-22T12:03:31;4.07;;;3.70;;
16731;SDS011;8484;50.904;9.192;2023-02-22T12:06:10;3.80;;;3.50;;
16731;SDS011;8484;50.904;9.192;2023-02-22T12:08:54;4.93;;;3.50;;
16731;SDS011;8484;50.904;9.192;2023-02-22T12:11:30;4.30;;;4.00;;
16731;SDS011;8484;50.904;9.192;2023-02-22T12:14:08;4.03;;;3.63;;
16731;SDS011;8484;50.904;9.192;2023-02-22T12:16:53;4.10;;;3.80;;
16731;SDS011;8484;50.904;9.192;2023-02-22T12:19:30;3.87;;;3.57;;
16731;SDS011;8484;50.904;9.192;2023-02-22T12:22:02;3.50;;;3.30;;
16731;SDS011;8484;50.904;9.192;2023-02-22T12:24:35;3.60;;;3.30;;
16731;SDS011;8484;50.904;9.192;2023-02-22T12:27:06;3.50;;;3.20;;
16731;SDS011;8484;50.904;9.192;2023-02-22T12:29:37;3.30;;;3.10;;
16731;SDS011;8484;50.904;9.192;2023-02-22T12:32:09;3.40;;;3.20;;
16731;SDS011;8484;50.904;9.192;2023-02-22T12:34:41;3.33;;;3.10;;
16731;SDS011;8484;50.904;9.192;2023-02-22T12:37:13;4.17;;;3.87;;
16731;SDS011;8484;50.904;9.192;2023-02-22T12:39:51;3.90;;;3.60;;
16731;SDS011;8484;50.904;9.192;2023-02-22T12:42:26;4.03;;;3.60;;
16731;SDS011;8484;50.904;9.192;2023-02-22T12:45:00;3.83;;;3.53;;
16731;SDS011;8484;50.904;9.192;2023-02-22T12:47:34;3.50;;;3.30;;
16731;SDS011;8484;50.904;9.192;2023-02-22T12:50:08;3.57;;;3.27;;
16731;SDS011;8484;50.904;9.192;2023-02-22T12:52:43;3.43;;;3.23;;
16731;SDS011;8484;50.904;9.192;2023-02-22T12:55:17;3.30;;;3.10;;
16731;SDS011;8484;50.904;9.192;2023-02-22T12:57:50;3.80;;;3.50;;
16731;SDS011;8484;50.904;9.192;2023-02-22T13:00:24;3.97;;;3.27;;
16731;SDS011;8484;50.904;9.192;2023-02-22T13:02:56;3.70;;;3.40;;
16731;SDS011;8484;50.904;9.192;2023-02-22T13:05:26;4.53;;;3.37;;
16731;SDS011;8484;50.904;9.192;2023-02-22T13:08:01;3.80;;;3.50;;
16731;SDS011;8484;50.904;9.192;2023-02-22T13:10:43;4.00;;;3.70;;
16731;SDS011;8484;50.904;9.192;2023-02-22T13:13:25;3.40;;;3.20;;
16731;SDS011;8484;50.904;9.192;2023-02-22T13:16:03;3.53;;;3.30;;
16731;SDS011;8484;50.904;9.192;2023-02-22T13:18:39;3.80;;;3.20;;
16731;SDS011;8484;50.904;9.192;2023-02-22T13:21:14;3.60;;;3.30;;
16731;SDS011;8484;50.904;9.192;2023-02-22T13:23:46;3.40;;;3.20;;
16731;SDS011;8484;50.904;9.192;2023-02-22T13:26:22;3.73;;;3.17;;
16731;SDS011;8484;50.904;9.192;2023-02-22T13:28:54;3.23;;;3.03;;
16731;SDS011;8484;50.904;9.192;2023-02-22T13:31:38;3.20;;;3.00;;
16731;SDS011;8484;50.904;9.192;2023-02-22T13:34:29;3.77;;;3.47;;
16731;SDS011;8484;50.904;9.192;2023-02-22T13:37:22;4.33;;;3.50;;
16731;SDS011;8484;50.904;9.192;2023-02-22T13:40:20;3.80;;;3.50;;
16731;SDS011;8484;50.904;9.192;2023-02-22T13:43:07;5.17;;;3.80;;
16731;SDS011;8484;50.904;9.192;2023-02-22T13:45:48;4.07;;;3.73;;
16731;SDS011;8484;50.904;9.192;2023-02-22T13:48:47;3.63;;;3.33;;
16731;SDS011;8484;50.904;9.192;2023-02-22T13:51:45;4.43;;;3.17;;
16731;SDS011;8484;50.904;9.192;2023-02-22T13:54:15;3.67;;;3.20;;
16731;SDS011;8484;50.904;9.192;2023-02-22T13:56:47;3.37;;;3.17;;
16731;SDS011;8484;50.904;9.192;2023-02-22T13:59:25;3.47;;;3.17;;
16731;SDS011;8484;50.904;9.192;2023-02-22T14:01:54;3.50;;;3.20;;
16731;SDS011;8484;50.904;9.192;2023-02-22T14:13:10;4.23;;;3.83;;
16731;SDS011;8484;50.904;9.192;2023-02-22T14:18:41;3.73;;;3.43;;
16731;SDS011;8484;50.904;9.192;2023-02-22T14:21:10;5.73;;;5.17;;
16731;SDS011;8484;50.904;9.192;2023-02-22T14:23:38;3.90;;;3.60;;
16731;SDS011;8484;50.904;9.192;2023-02-22T14:26:10;4.13;;;3.83;;
16731;SDS011;8484;50.904;9.192;2023-02-22T14:28:41;4.07;;;3.77;;
16731;SDS011;8484;50.904;9.192;2023-02-22T14:31:15;4.20;;;3.80;;
16731;SDS011;8484;50.904;9.192;2023-02-22T14:36:37;4.20;;;3.83;;
16731;SDS011;8484;50.904;9.192;2023-02-22T14:39:15;4.90;;;3.90;;
16731;SDS011;8484;50.904;9.192;2023-02-22T14:41:50;4.50;;;4.10;;
16731;SDS011;8484;50.904;9.192;2023-02-22T14:44:25;4.80;;;4.40;;
16731;SDS011;8484;50.904;9.192;2023-02-22T14:46:55;5.53;;;5.03;;
16731;SDS011;8484;50.904;9.192;2023-02-22T14:49:30;6.30;;;5.70;;
16731;SDS011;8484;50.904;9.192;2023-02-22T14:52:03;10.10;;;6.70;;
16731;SDS011;8484;50.904;9.192;2023-02-22T14:54:38;8.43;;;7.50;;
16731;SDS011;8484;50.904;9.192;2023-02-22T14:57:17;10.33;;;8.80;;
16731;SDS011;8484;50.904;9.192;2023-02-22T14:59:55;10.93;;;8.13;;
16731;SDS011;8484;50.904;9.192;2023-02-22T15:02:44;8.80;;;7.63;;
16731;SDS011;8484;50.904;9.192;2023-02-22T15:05:13;8.00;;;7.20;;
16731;SDS011;8484;50.904;9.192;2023-02-22T15:07:50;10.57;;;7.33;;
16731;SDS011;8484;50.904;9.192;2023-02-22T15:10:21;7.17;;;6.43;;
16731;SDS011;8484;50.904;9.192;2023-02-22T15:12:50;7.73;;;6.90;;
16731;SDS011;8484;50.904;9.192;2023-02-22T15:15:23;6.87;;;6.20;;
16731;SDS011;8484;50.904;9.192;2023-02-22T15:17:52;5.90;;;5.30;;
16731;SDS011;8484;50.904;9.192;2023-02-22T15:20:21;5.93;;;5.43;;
16731;SDS011;8484;50.904;9.192;2023-02-22T15:22:50;7.33;;;5.33;;
16731;SDS011;8484;50.904;9.192;2023-02-22T15:25:24;5.43;;;4.93;;
16731;SDS011;8484;50.904;9.192;2023-02-22T15:27:52;5.63;;;5.03;;
16731;SDS011;8484;50.904;9.192;2023-02-22T15:30:25;5.63;;;5.13;;
16731;SDS011;8484;50.904;9.192;2023-02-22T15:32:54;5.47;;;4.97;;